Latest Coastal Weather Observations for Cooktown

IDQ60701

Issued at 2:35 pm EST Thursday 24 July 2014 (issued every 10 minutes, with the page automatically refreshed every 10 minutes)

About coastal observations | Map of coastal stations | Coastal observations for QLD | Marine services | Other Formats
Station Details ID: 031209 Name: COOKTOWN AIRPORT Lat: -15.45 Lon: 145.19 Height: 4.8 m
Data from the previous 72 hours. | See also: Recent months at Cooktown
Date/Time
EST
Temp

°C
Wind Pressure Rain
since 9am
mm
Weather Cloud Vis
km
Sea
Height
m
Swell
Dir
 
Speed
knots
Gust
knots
hPa Trend Height
m
Period
s
Dir
24/02:30pm 23.6 ESE 10 15 1016.0 - 0.0 - Partly cloudy 10 - - - -
24/02:00pm 25.0 ESE 11 17 1016.0 - 0.0 - Partly cloudy 10 - - - -
24/01:30pm 25.0 ESE 11 18 1016.3 - 0.0 - Partly cloudy 10 - - - -
24/01:00pm 23.2 SSE 8 13 1016.9 - 0.0 - Partly cloudy 10 - - - -
24/12:30pm 22.3 E 14 20 1017.4 - 0.0 - Partly cloudy 10 - - - -
24/12:00pm 23.5 E 15 21 1017.5 - 0.0 - Cloudy 10 - - - -
24/11:30am 24.6 ESE 13 20 1017.6 - 0.0 - Partly cloudy 10 - - - -
24/11:00am 25.5 ESE 15 22 1017.8 - 0.0 - Partly cloudy 10 - - - -
24/10:30am 25.0 SE 12 19 1017.8 - 0.0 - Partly cloudy 10 - - - -
24/10:00am 24.8 SE 10 15 1017.8 - 0.0 - Partly cloudy 10 - - - -
24/09:30am 23.3 ESE 10 19 1017.7 - 0.0 - Partly cloudy 10 - - - -
24/09:00am 23.6 SE 8 11 1017.4 R 0.2 Fine Mostly clear 35 - - - -
24/08:30am 21.8 SE 6 11 1017.0 - 0.2 - Partly cloudy 10 - - - -
24/08:00am 21.1 SSE 6 9 1016.4 - 0.2 - Partly cloudy 10 - - - -
24/07:30am 19.9 SE 5 10 1016.0 - 0.2 - Partly cloudy 10 - - - -
24/07:00am 19.8 SSE 5 7 1015.7 - 0.2 - Cloudy 10 - - - -
24/06:30am 19.3 SSE 4 7 1015.4 - 0.2 - Partly cloudy 10 - - - -
24/06:00am 19.8 SSE 5 8 1015.0 - 0.2 - Mostly clear 10 - - - -
24/05:30am 19.9 SE 6 8 1014.9 - 0.2 - - 10 - - - -
24/05:00am 19.8 SE 5 7 1014.9 - 0.2 - - 10 - - - -
24/04:30am 19.7 ESE 5 7 1015.0 - 0.2 - - 10 - - - -
24/04:00am 20.1 SE 5 7 1015.1 - 0.2 - - 10 - - - -
24/03:30am 20.3 SE 5 8 1015.4 - 0.2 - Partly cloudy 10 - - - -
24/03:00am 20.5 SSE 4 7 1015.5 - 0.2 - Partly cloudy 10 - - - -
24/02:30am 20.7 SSE 5 7 1015.7 - 0.2 - - 10 - - - -
24/02:00am 21.1 ESE 8 14 1015.8 - 0.2 - - 10 - - - -
24/01:30am 21.2 ESE 9 16 1016.0 - 0.2 - - 10 - - - -
24/01:00am 21.4 ESE 10 16 1016.2 - 0.2 - - 10 - - - -
24/12:30am 21.6 ESE 8 11 1016.5 - 0.2 - - 10 - - - -
24/12:00am 21.4 SE 8 11 1016.5 - 0.2 - - 10 - - - -
 
Date/Time
EST
Temp

°C
Wind Pressure Rain
since 9am
mm
Weather Cloud Vis
km
Sea
Height
m
Swell
Dir
 
Speed
knots
Gust
knots
hPa Trend Height
m
Period
s
Dir
23/11:30pm 21.6 ESE 11 15 1016.6 - 0.2 - - 10 - - - -
23/11:00pm 21.7 ESE 10 14 1016.9 - 0.2 - Partly cloudy 10 - - - -
23/10:30pm 22.2 ESE 9 14 1016.9 - 0.2 - Cloudy 10 - - - -
23/10:00pm 22.3 ESE 10 18 1016.8 - 0.2 - Partly cloudy 10 - - - -
23/09:30pm 22.5 ESE 10 17 1016.9 - 0.2 - Partly cloudy 10 - - - -
23/09:00pm 22.3 ESE 8 14 1016.6 - 0.2 - Cloudy 10 - - - -
23/08:30pm 21.8 SE 8 12 1016.4 - 0.2 - Partly cloudy 10 - - - -
23/08:00pm 21.4 ESE 9 13 1016.3 - 0.2 - Partly cloudy 10 - - - -
23/07:30pm 21.6 ESE 12 21 1016.1 - 0.2 - Partly cloudy 10 - - - -
23/07:00pm 21.3 ESE 11 17 1015.7 - 0.2 - Partly cloudy 10 - - - -
23/06:30pm 21.4 ESE 8 12 1015.4 - 0.2 - Partly cloudy 10 - - - -
23/06:00pm 22.2 SE 9 14 1015.3 - 0.2 - Cloudy 10 - - - -
23/05:30pm 22.2 ESE 8 13 1015.3 - 0.2 - Partly cloudy 10 - - - -
23/05:00pm 22.4 ESE 10 15 1015.0 - 0.2 - Cloudy 10 - - - -
23/04:30pm 22.6 SE 7 12 1014.6 - 0.2 - Partly cloudy 10 - - - -
23/04:00pm 22.7 SE 7 11 1014.6 - 0.2 - Partly cloudy 10 - - - -
23/03:30pm 22.5 SE 7 14 1014.5 - 0.2 - Partly cloudy 10 - - - -
23/03:00pm 22.1 SE 9 15 1014.6 R 0.2 Fine Cloudy 35 - - - -
23/02:30pm 23.0 SE 7 12 1014.7 - 0.2 - Partly cloudy 10 - - - -
23/02:00pm 23.2 SE 9 13 1015.0 - 0.2 - Partly cloudy 10 - - - -
23/01:30pm 23.5 SE 9 14 1015.2 - 0.2 - Partly cloudy 10 - - - -
23/01:00pm 24.1 ESE 9 19 1015.5 - 0.2 - Partly cloudy 10 - - - -
23/12:30pm 24.0 SE 8 13 1015.8 - 0.2 - Partly cloudy 10 - - - -
23/12:00pm 24.1 SE 8 13 1016.1 - 0.2 - Cloudy 10 - - - -
23/11:30am 23.5 SE 9 15 1016.6 - 0.0 - Partly cloudy 10 - - - -
23/11:00am 23.0 ESE 9 15 1017.0 - 0.0 - Partly cloudy 10 - - - -
23/10:30am 22.6 SE 10 15 1017.2 - 0.0 - Partly cloudy 10 - - - -
23/10:00am 23.3 SE 8 11 1017.1 - 0.0 - Partly cloudy 10 - - - -
23/09:30am 22.4 SE 8 13 1017.2 - 0.0 - Partly cloudy 10 - - - -
23/09:00am 19.8 WNW 4 6 1017.2 F 0.2 Fine Partly cloudy 30 - - - -
23/08:30am 18.7 W 4 6 1017.2 - 0.2 - Partly cloudy 10 - - - -
23/08:00am 18.1 WNW 1 4 1017.0 - 0.2 - Cloudy 10 - - - -
23/07:30am 17.9 CALM 0 3 1016.6 - 0.2 - Partly cloudy 10 - - - -
23/07:00am 17.6 W 2 4 1016.5 - 0.2 - Partly cloudy 10 - - - -
23/06:30am 17.2 CALM 0 2 1016.5 - 0.0 - Partly cloudy 10 - - - -
23/06:00am 16.6 W 3 3 1016.1 - 0.0 - Cloudy 10 - - - -
23/05:30am 17.0 W 3 4 1016.1 - 0.0 - Partly cloudy 10 - - - -
23/05:08am 16.9 WSW 3 4 1015.9 - 0.0 - Partly cloudy 10 - - - -
23/05:00am 16.9 WSW 3 4 1015.9 - 0.0 - Partly cloudy 10 - - - -
23/04:53am 16.9 W 2 3 1015.9 - 0.0 - Partly cloudy 10 - - - -
23/04:30am 17.2 W 3 5 1015.7 - 0.0 - Partly cloudy 10 - - - -
23/04:00am 16.9 WNW 4 6 1015.8 - 0.0 - Partly cloudy 10 - - - -
23/03:36am 16.8 W 4 5 1015.7 - 0.0 - Partly cloudy 10 - - - -
23/03:30am 16.6 NW 2 5 1015.8 - 0.0 - Partly cloudy 10 - - - -
23/03:22am 16.4 NNW 3 5 1015.8 - 0.0 - Partly cloudy 10 - - - -
23/03:00am 15.7 WNW 3 4 1015.9 - 0.0 - Cloudy 10 - - - -
23/02:30am 15.5 WNW 3 4 1016.0 - 0.0 - Partly cloudy 10 - - - -
23/02:00am 15.5 WSW 1 5 1016.2 - 0.0 - Partly cloudy 10 - - - -
23/01:30am 14.8 W 3 5 1016.5 - 0.0 - Partly cloudy 10 - - - -
23/01:00am 15.3 W 3 4 1017.0 - 0.0 - - 9 - - - -
23/12:30am 14.5 WNW 4 5 1017.3 - 0.0 - Partly cloudy 10 - - - -
23/12:00am 15.0 W 3 5 1017.4 - 0.0 - Mostly clear 10 - - - -
 
Date/Time
EST
Temp

°C
Wind Pressure Rain
since 9am
mm
Weather Cloud Vis
km
Sea
Height
m
Swell
Dir
 
Speed
knots
Gust
knots
hPa Trend Height
m
Period
s
Dir
22/11:30pm 15.1 WNW 3 4 1017.6 - 0.0 - - 10 - - - -
22/11:00pm 15.5 CALM 0 3 1017.7 - 0.0 - - 10 - - - -
22/10:30pm 15.7 CALM 0 0 1017.8 - 0.0 - - 10 - - - -
22/10:00pm 16.3 W 3 5 1017.9 - 0.0 - - 10 - - - -
22/09:30pm 16.4 CALM 0 2 1017.8 - 0.0 - - 10 - - - -
22/09:00pm 17.2 CALM 0 0 1017.8 - 0.0 - - 10 - - - -
22/08:30pm 17.8 SSE 2 4 1017.7 - 0.0 - - 10 - - - -
22/08:00pm 19.9 SE 4 6 1017.5 - 0.0 - - 10 - - - -
22/07:30pm 20.1 ESE 6 8 1017.5 - 0.0 - - 10 - - - -
22/07:00pm 20.1 ESE 6 9 1017.1 - 0.0 - - 10 - - - -
22/06:30pm 20.2 ESE 6 8 1016.6 - 0.0 - - 10 - - - -
22/06:00pm 20.9 ESE 6 11 1016.2 - 0.0 - - 10 - - - -
22/05:30pm 21.9 ESE 8 11 1016.0 - 0.0 - - 10 - - - -
22/05:00pm 22.6 ESE 7 12 1015.8 - 0.0 - - 10 - - - -
22/04:30pm 23.0 ESE 8 13 1015.7 - 0.0 - - 10 - - - -
22/04:00pm 23.5 ESE 10 15 1015.5 - 0.0 - - 10 - - - -
22/03:30pm 23.6 SE 8 13 1015.4 - 0.0 - - 10 - - - -
22/03:00pm 24.1 ESE 10 14 1015.6 F 0.0 Fine Mostly clear 40 - - - -
22/02:30pm 23.9 ESE 10 17 1015.8 - 0.0 - - 10 - - - -
22/02:00pm 23.7 ESE 9 15 1016.0 - 0.0 - Partly cloudy 10 - - - -
22/01:30pm 25.1 ESE 9 13 1016.4 - 0.0 - - 10 - - - -
22/01:00pm 24.0 ESE 8 11 1016.9 - 0.0 - Partly cloudy 10 - - - -
22/12:30pm 23.8 SE 9 14 1017.7 - 0.0 - Partly cloudy 10 - - - -
22/12:00pm 24.1 ESE 9 12 1018.3 - 0.0 - Partly cloudy 10 - - - -
22/11:30am 23.5 SE 10 15 1018.8 - 0.0 - Partly cloudy 10 - - - -
22/11:00am 23.8 ESE 10 15 1019.1 - 0.0 - Partly cloudy 10 - - - -
22/10:30am 23.1 SE 11 18 1019.4 - 0.0 - Partly cloudy 10 - - - -
22/10:00am 22.5 SE 10 15 1019.6 - 0.0 - Partly cloudy 10 - - - -
22/09:30am 22.1 SE 10 16 1019.6 - 0.0 - Partly cloudy 10 - - - -
22/09:00am 21.2 SSE 7 12 1019.4 R 0.0 Fine Mostly clear 40 - - - -
22/08:30am 18.8 W 3 5 1019.2 - 0.0 - - 10 - - - -
22/08:00am 15.9 WNW 5 6 1018.9 - 0.0 - - 10 - - - -
22/07:30am 13.8 WNW 4 5 1018.6 - 0.0 - - 10 - - - -
22/07:00am 12.2 WNW 2 4 1018.3 - 0.0 - - 10 - - - -
22/06:30am 12.7 WNW 2 4 1018.0 - 0.0 - - 10 - - - -
22/06:00am 12.1 WNW 6 7 1017.8 - 0.0 - - 10 - - - -
22/05:30am 12.3 SSE 3 5 1017.4 - 0.0 - - 10 - - - -
22/05:00am 13.3 W 1 4 1017.4 - 0.0 - - 10 - - - -
22/04:30am 13.5 CALM 0 3 1017.4 - 0.0 - - 10 - - - -
22/04:00am 13.6 CALM 0 0 1017.5 - 0.0 - - 10 - - - -
22/03:30am 14.0 S 3 5 1017.6 - 0.0 - - 10 - - - -
22/03:00am 14.2 S 2 4 1017.5 - 0.0 - Mostly clear 10 - - - -
22/02:30am 18.5 SE 5 7 1017.8 - 0.0 - Partly cloudy 10 - - - -
22/02:00am 18.2 SSE 5 7 1017.9 - 0.0 - - 10 - - - -
22/01:30am 17.9 S 4 6 1018.2 - 0.0 - - 10 - - - -
22/01:00am 19.5 SSE 5 8 1018.5 - 0.0 - Partly cloudy 10 - - - -
22/12:30am 20.1 SE 5 9 1018.7 - 0.0 - - 10 - - - -
22/12:00am 20.3 SE 6 10 1018.9 - 0.0 - - 10 - - - -
 
Date/Time
EST
Temp

°C
Wind Pressure Rain
since 9am
mm
Weather Cloud Vis
km
Sea
Height
m
Swell
Dir
 
Speed
knots
Gust
knots
hPa Trend Height
m
Period
s
Dir
21/11:30pm 20.1 SE 6 9 1019.1 - 0.0 - - 10 - - - -
21/11:00pm 20.3 SE 6 9 1019.2 - 0.0 - - 10 - - - -
21/10:30pm 20.1 ESE 7 10 1019.3 - 0.0 - - 10 - - - -
21/10:00pm 19.0 SE 5 7 1019.3 - 0.0 - - 10 - - - -
21/09:30pm 19.6 SE 4 6 1019.3 - 0.0 - - 10 - - - -
21/09:00pm 19.5 SE 4 6 1019.1 - 0.0 - - 10 - - - -
21/08:30pm 19.8 SE 4 7 1018.9 - 0.0 - - 10 - - - -
21/08:00pm 19.7 SSE 4 7 1018.6 - 0.0 - - 10 - - - -
21/07:30pm 20.0 SSE 5 8 1018.3 - 0.0 - - 10 - - - -
21/07:00pm 20.3 SE 6 9 1018.0 - 0.0 - - 10 - - - -
21/06:30pm 20.6 SE 7 11 1017.7 - 0.0 - - 10 - - - -
21/06:00pm 21.3 SE 8 15 1017.4 - 0.0 - - 10 - - - -
21/05:30pm 21.7 SE 8 12 1017.2 - 0.0 - - 10 - - - -
21/05:00pm 22.4 SE 9 15 1016.9 - 0.0 - - 10 - - - -
21/04:30pm 22.9 SE 10 19 1016.6 - 0.0 - - 10 - - - -
21/04:00pm 23.1 ESE 11 18 1016.6 - 0.0 - - 10 - - - -
21/03:30pm 23.8 ESE 11 16 1016.5 - 0.0 - - 10 - - - -
21/03:00pm 24.0 ESE 11 15 1016.7 R 0.0 Fine Mostly clear 40 - - - -

Other Formats:

Comma delimited format used in spreadsheet applications
http://www.bom.gov.au/fwo/IDQ60701/IDQ60701.95283.axf

JavaScript Object Notation format (JSON) in row-major order
http://www.bom.gov.au/fwo/IDQ60701/IDQ60701.95283.json